Time;durP1;ratioP1;P1;durP2;ratioP2;P2;SDS_P1;SDS_P2;PMS_P1;PMS_P2;Temp;Humidity;BMP_temperature;BMP_pressure;BME280_temperature;BME280_humidity;BME280_pressure;Samples;Min_cycle;Max_cycle;Signal;HPM_P1;HPM_P2
2021/12/13 00:00:21;;;;;;;9.13;7.28;;;10.20;99.90;;;;;;4841395;29;20042;-86
2021/12/13 00:02:54;;;;;;;9.15;7.38;;;10.10;99.90;;;;;;4840919;29;20057;-86
2021/12/13 00:05:40;;;;;;;9.23;7.47;;;10.10;99.90;;;;;;4839743;29;20118;-84
2021/12/13 00:08:10;;;;;;;10.18;7.80;;;10.10;99.90;;;;;;4825303;29;20042;-84
2021/12/13 00:10:50;;;;;;;10.07;7.85;;;10.20;99.90;;;;;;4806033;29;20489;-84
2021/12/13 00:13:22;;;;;;;10.23;7.28;;;10.10;99.90;;;;;;4824962;29;20047;-84
2021/12/13 00:15:53;;;;;;;8.80;7.28;;;10.10;99.90;;;;;;4808083;29;20143;-86
2021/12/13 00:18:24;;;;;;;11.23;8.60;;;10.10;99.90;;;;;;4806159;29;20141;-85
2021/12/13 00:20:55;;;;;;;11.15;8.50;;;10.10;99.90;;;;;;4805010;29;20046;-85
2021/12/13 00:23:35;;;;;;;10.48;7.47;;;10.10;99.90;;;;;;4790122;29;20047;-86
2021/12/13 00:26:04;;;;;;;11.25;8.20;;;10.00;99.90;;;;;;4790048;29;20042;-86
2021/12/13 00:28:37;;;;;;;10.90;7.95;;;10.10;99.90;;;;;;4804497;29;20520;-86
2021/12/13 00:31:14;;;;;;;11.25;8.02;;;10.10;99.90;;;;;;4792011;29;20108;-86
2021/12/13 00:33:42;;;;;;;11.68;8.25;;;10.20;99.90;;;;;;4807523;29;20472;-86
2021/12/13 00:36:24;;;;;;;11.32;8.18;;;10.10;99.90;;;;;;4811745;29;20134;-86
2021/12/13 00:38:56;;;;;;;11.85;8.45;;;10.10;99.90;;;;;;4807885;29;20103;-86
2021/12/13 00:41:27;;;;;;;11.07;8.77;;;10.10;99.90;;;;;;4807392;29;20840;-86
2021/12/13 00:44:02;;;;;;;9.45;7.22;;;10.20;99.90;;;;;;4822899;29;20121;-87
2021/12/13 00:46:29;;;;;;;13.05;8.77;;;10.10;99.90;;;;;;4823693;29;20382;-87
2021/12/13 00:48:58;;;;;;;13.65;8.45;;;10.10;99.90;;;;;;4807296;29;20073;-86
2021/12/13 00:51:28;;;;;;;11.70;8.48;;;10.10;99.90;;;;;;4822440;29;20635;-86
2021/12/13 00:54:01;;;;;;;10.25;8.23;;;10.10;99.90;;;;;;4798617;29;20051;-86
2021/12/13 00:56:48;;;;;;;13.48;8.85;;;10.20;99.90;;;;;;4788870;29;20042;-87
2021/12/13 00:59:29;;;;;;;12.27;8.80;;;10.10;99.90;;;;;;4788775;29;20082;-86
2021/12/13 01:02:13;;;;;;;13.20;9.48;;;10.10;99.90;;;;;;4788753;29;20138;-87
2021/12/13 01:05:01;;;;;;;14.85;9.68;;;10.10;99.90;;;;;;4804609;29;20551;-86
2021/12/13 01:07:33;;;;;;;15.95;10.30;;;10.10;99.90;;;;;;4803993;29;20477;-86
2021/12/13 01:10:36;;;;;;;14.57;9.23;;;10.00;99.90;;;;;;4788649;29;20055;-86
2021/12/13 01:13:09;;;;;;;15.48;10.38;;;10.20;99.90;;;;;;4805685;29;20050;-86
2021/12/13 01:15:43;;;;;;;12.75;9.07;;;10.10;99.90;;;;;;4819068;29;20046;-86
2021/12/13 01:18:20;;;;;;;14.43;9.40;;;10.10;99.90;;;;;;4798954;29;20141;-86
2021/12/13 01:21:11;;;;;;;16.13;10.13;;;10.10;99.90;;;;;;4804369;29;20055;-86
2021/12/13 01:23:46;;;;;;;17.25;9.73;;;10.10;99.90;;;;;;4819695;29;20172;-86
2021/12/13 01:28:50;;;;;;;;;;;10.10;99.90;;;;;;4808953;29;20042;-86
2021/12/13 01:31:24;;;;;;;18.13;10.95;;;10.10;99.90;;;;;;4789230;29;20387;-86
2021/12/13 01:33:51;;;;;;;16.05;10.60;;;10.10;99.90;;;;;;4822228;29;20050;-86
2021/12/13 01:36:25;;;;;;;17.30;10.55;;;10.10;99.90;;;;;;4807456;29;20082;-86
2021/12/13 01:39:05;;;;;;;15.93;10.38;;;10.10;99.90;;;;;;4804119;29;20039;-87
2021/12/13 01:42:07;;;;;;;16.13;9.60;;;10.20;99.90;;;;;;4809479;29;20378;-86
2021/12/13 01:44:36;;;;;;;15.80;10.18;;;10.20;99.90;;;;;;4811936;29;20046;-86
2021/12/13 01:47:10;;;;;;;14.95;9.10;;;10.10;99.90;;;;;;4807118;29;20078;-87
2021/12/13 01:49:44;;;;;;;14.98;9.18;;;10.10;99.90;;;;;;4806956;29;20086;-86
2021/12/13 01:52:17;;;;;;;16.67;9.50;;;10.20;99.90;;;;;;4822344;29;20046;-87
2021/12/13 01:54:45;;;;;;;15.30;9.13;;;10.10;99.90;;;;;;4810463;29;20053;-87
2021/12/13 01:59:56;;;;;;;14.90;9.60;;;10.20;99.90;;;;;;4819708;29;20057;-86
2021/12/13 02:02:28;;;;;;;13.55;8.38;;;10.20;99.90;;;;;;4815961;29;20275;-86
2021/12/13 02:05:10;;;;;;;11.65;8.32;;;10.20;99.90;;;;;;4834363;29;20053;-86
2021/12/13 02:07:57;;;;;;;13.77;8.95;;;10.20;99.90;;;;;;4819171;29;20054;-86
2021/12/13 02:10:29;;;;;;;12.35;8.70;;;10.20;99.90;;;;;;4822819;29;20046;-86
2021/12/13 02:13:02;;;;;;;13.82;9.18;;;10.20;99.90;;;;;;4807656;29;20059;-86
2021/12/13 02:18:22;;;;;;;16.83;9.43;;;10.20;99.90;;;;;;4812661;29;20061;-86
2021/12/13 02:21:25;;;;;;;14.27;9.75;;;10.20;99.90;;;;;;4805257;29;20058;-86
2021/12/13 02:23:55;;;;;;;16.15;10.52;;;10.20;99.90;;;;;;4805050;29;20101;-86
2021/12/13 02:26:21;;;;;;;17.42;11.23;;;10.20;99.90;;;;;;4795672;29;20442;-86
2021/12/13 02:29:11;;;;;;;16.55;10.82;;;10.20;99.90;;;;;;4804840;29;20056;-86
2021/12/13 02:31:39;;;;;;;16.85;11.15;;;10.20;99.90;;;;;;4818151;29;20054;-86
2021/12/13 02:34:12;;;;;;;16.27;11.63;;;10.20;99.90;;;;;;4789267;29;20053;-85
2021/12/13 02:36:42;;;;;;;18.92;12.35;;;10.20;99.90;;;;;;4806246;29;20062;-86
2021/12/13 02:39:15;;;;;;;16.90;11.90;;;10.20;99.90;;;;;;4793755;29;20038;-86
2021/12/13 02:41:43;;;;;;;21.98;13.35;;;10.10;99.90;;;;;;4805581;29;20400;-86
2021/12/13 02:44:16;;;;;;;17.98;12.13;;;10.20;99.90;;;;;;4822472;29;20050;-85
2021/12/13 02:46:42;;;;;;;22.85;12.85;;;10.10;99.90;;;;;;4802767;29;20047;-86
2021/12/13 02:49:11;;;;;;;22.15;13.00;;;10.10;99.90;;;;;;4820758;29;20114;-86
2021/12/13 02:51:48;;;;;;;22.00;12.00;;;10.20;99.90;;;;;;4843433;29;20046;-86
2021/12/13 02:54:17;;;;;;;23.77;12.93;;;10.10;99.90;;;;;;4835678;29;20050;-86
2021/12/13 02:56:51;;;;;;;22.40;12.60;;;10.20;99.90;;;;;;4824575;29;20068;-86
2021/12/13 02:59:20;;;;;;;25.52;12.40;;;10.10;99.90;;;;;;4840671;29;20054;-86
2021/12/13 03:02:05;;;;;;;23.73;12.38;;;10.20;99.90;;;;;;4815002;29;20047;-86
2021/12/13 03:04:32;;;;;;;28.40;13.35;;;10.10;99.90;;;;;;4806887;29;20047;-85
2021/12/13 03:07:10;;;;;;;;;;;10.20;99.90;;;;;;4806289;29;20086;-86
2021/12/13 03:09:37;;;;;;;;;;;10.20;99.90;;;;;;4814876;29;20383;-86
2021/12/13 03:12:06;;;;;;;20.75;11.15;;;10.10;99.90;;;;;;4809019;29;19992;-84
2021/12/13 03:15:03;;;;;;;22.15;11.02;;;10.10;99.90;;;;;;4839881;29;20045;-85
2021/12/13 03:17:44;;;;;;;21.92;12.20;;;10.10;99.90;;;;;;4857443;29;20058;-85
2021/12/13 03:20:18;;;;;;;18.45;11.10;;;10.10;99.90;;;;;;4824036;29;20046;-86
2021/12/13 03:23:02;;;;;;;24.70;12.30;;;10.10;99.90;;;;;;4823709;29;20050;-85
2021/12/13 03:25:40;;;;;;;20.75;11.18;;;10.00;99.90;;;;;;4824514;29;20050;-86
2021/12/13 03:28:31;;;;;;;21.48;12.38;;;10.00;99.90;;;;;;4823798;29;20046;-86
2021/12/13 03:31:05;;;;;;;21.23;13.45;;;10.00;99.90;;;;;;4824056;29;20050;-85
2021/12/13 03:33:40;;;;;;;24.08;11.88;;;10.00;99.90;;;;;;4808956;29;20504;-85
2021/12/13 03:36:12;;;;;;;22.45;12.13;;;10.10;99.90;;;;;;4823677;29;20047;-85
2021/12/13 03:38:42;;;;;;;25.20;14.48;;;10.00;99.90;;;;;;4808379;29;20050;-85
2021/12/13 03:41:14;;;;;;;22.13;11.77;;;10.00;99.90;;;;;;4808603;29;20074;-85
2021/12/13 03:43:48;;;;;;;22.75;11.90;;;10.00;99.90;;;;;;4811873;29;20046;-85
2021/12/13 03:46:16;;;;;;;21.33;12.13;;;9.90;99.90;;;;;;4801794;29;20062;-85
2021/12/13 03:48:44;;;;;;;22.75;11.68;;;10.00;99.90;;;;;;4805467;29;20500;-85
2021/12/13 03:51:14;;;;;;;24.05;11.63;;;10.00;99.90;;;;;;4823647;29;20118;-85
2021/12/13 03:53:45;;;;;;;17.25;10.88;;;9.90;99.90;;;;;;4790022;29;20585;-85
2021/12/13 03:56:14;;;;;;;22.67;10.13;;;9.90;99.90;;;;;;4804892;29;20047;-85
2021/12/13 03:58:46;;;;;;;20.60;10.02;;;9.90;99.90;;;;;;4821618;29;20046;-85
2021/12/13 04:01:26;;;;;;;17.98;9.73;;;9.80;99.90;;;;;;4805682;29;20397;-85
2021/12/13 04:03:56;;;;;;;16.42;8.70;;;9.90;99.90;;;;;;4798241;29;20113;-85
2021/12/13 04:06:22;;;;;;;20.52;9.10;;;9.80;99.90;;;;;;4823303;29;20615;-85
2021/12/13 04:08:54;;;;;;;16.90;8.32;;;9.80;99.90;;;;;;4823510;29;20050;-85
2021/12/13 04:11:23;;;;;;;15.75;8.27;;;9.80;99.90;;;;;;4807605;29;20129;-85
2021/12/13 04:14:00;;;;;;;15.82;7.03;;;9.80;99.90;;;;;;4790158;29;20054;-85
2021/12/13 04:17:02;;;;;;;16.95;7.40;;;9.70;99.90;;;;;;4804981;29;20047;-85
2021/12/13 04:19:32;;;;;;;16.67;7.30;;;9.80;99.90;;;;;;4822967;29;20143;-84
2021/12/13 04:22:01;;;;;;;13.13;6.70;;;9.80;99.90;;;;;;4815723;29;20438;-85
2021/12/13 04:24:39;;;;;;;15.88;6.40;;;9.80;99.90;;;;;;4823126;29;20046;-85
2021/12/13 04:27:16;;;;;;;11.75;6.13;;;9.80;99.90;;;;;;4806992;29;20050;-84
2021/12/13 04:29:44;;;;;;;12.15;5.80;;;9.80;99.90;;;;;;4823105;29;20054;-85
2021/12/13 04:32:27;;;;;;;14.10;6.00;;;9.80;99.90;;;;;;4822909;29;20050;-84
2021/12/13 04:34:57;;;;;;;9.80;5.15;;;9.70;99.90;;;;;;4823051;29;20114;-84
2021/12/13 04:37:28;;;;;;;10.13;5.30;;;9.70;99.90;;;;;;4807400;29;20121;-84
2021/12/13 04:40:00;;;;;;;9.50;4.68;;;9.70;99.90;;;;;;4807867;29;20050;-84
2021/12/13 04:42:28;;;;;;;10.57;4.57;;;9.70;99.90;;;;;;4807435;29;20500;-84
2021/12/13 04:45:08;;;;;;;8.60;4.32;;;9.80;99.90;;;;;;4813217;29;20079;-84
2021/12/13 04:47:48;;;;;;;5.53;4.13;;;9.70;99.90;;;;;;4811108;29;20505;-84
2021/12/13 04:50:28;;;;;;;9.45;3.97;;;9.70;99.90;;;;;;4803201;29;20058;-84
2021/12/13 04:52:55;;;;;;;6.55;3.65;;;9.70;99.90;;;;;;4816388;29;20053;-84
2021/12/13 04:55:29;;;;;;;7.57;3.30;;;9.60;99.90;;;;;;4790021;29;20390;-84
2021/12/13 04:57:57;;;;;;;7.75;3.33;;;9.60;99.90;;;;;;4810728;29;20058;-84
2021/12/13 05:00:27;;;;;;;10.07;3.47;;;9.60;99.90;;;;;;4812567;29;20053;-84
2021/12/13 05:02:58;;;;;;;7.57;3.63;;;9.60;99.90;;;;;;4806834;29;20038;-85
2021/12/13 05:05:24;;;;;;;6.60;3.20;;;9.60;99.90;;;;;;4822817;29;20046;-84
2021/12/13 05:07:51;;;;;;;;;;;9.50;99.90;;;;;;4823009;29;20050;-84
2021/12/13 05:10:17;;;;;;;7.80;3.75;;;9.60;99.90;;;;;;4818420;29;19921;-84
2021/12/13 05:13:09;;;;;;;5.72;3.35;;;9.60;99.90;;;;;;4793590;29;20462;-84
2021/12/13 05:15:39;;;;;;;6.10;3.42;;;9.50;99.90;;;;;;4795748;29;20037;-84
2021/12/13 05:18:09;;;;;;;8.07;3.50;;;9.50;99.90;;;;;;4828131;29;20062;-84
2021/12/13 05:20:39;;;;;;;6.40;3.47;;;9.50;99.90;;;;;;4807238;29;20103;-82
2021/12/13 05:23:11;;;;;;;4.60;2.97;;;9.50;99.90;;;;;;4822131;29;20496;-82
2021/12/13 05:25:42;;;;;;;6.93;3.35;;;9.50;99.90;;;;;;4822486;29;20083;-81
2021/12/13 05:28:08;;;;;;;6.22;3.60;;;9.50;99.90;;;;;;4810903;29;20069;-83
2021/12/13 05:30:36;;;;;;;8.45;3.50;;;9.50;99.90;;;;;;4834077;29;20112;-82
2021/12/13 05:33:06;;;;;;;5.85;3.42;;;9.50;99.90;;;;;;4804007;29;20070;-82
2021/12/13 05:35:41;;;;;;;6.53;3.60;;;9.50;99.90;;;;;;4804497;29;20520;-82
2021/12/13 05:38:10;;;;;;;5.60;3.22;;;9.50;99.90;;;;;;4813795;29;20054;-82
2021/12/13 05:40:41;;;;;;;5.82;3.40;;;9.50;99.90;;;;;;4825593;29;20054;-83
2021/12/13 05:43:27;;;;;;;5.78;3.20;;;9.50;99.90;;;;;;4834888;29;20394;-82
2021/12/13 05:46:05;;;;;;;4.97;3.40;;;9.50;99.90;;;;;;4828494;29;20049;-83
2021/12/13 05:48:34;;;;;;;7.90;3.65;;;9.50;99.90;;;;;;4855077;29;20053;-83
2021/12/13 05:51:05;;;;;;;6.57;3.40;;;9.50;99.90;;;;;;4828712;29;20058;-82
2021/12/13 05:53:44;;;;;;;9.68;3.47;;;9.50;99.90;;;;;;4810153;29;20485;-83
2021/12/13 05:56:16;;;;;;;6.30;3.40;;;9.50;99.90;;;;;;4795954;29;20529;-83
2021/12/13 05:59:08;;;;;;;7.28;3.63;;;9.50;99.90;;;;;;4808354;29;20046;-83
2021/12/13 06:01:58;;;;;;;9.75;4.20;;;9.50;99.90;;;;;;4825960;29;20050;-83
2021/12/13 06:04:37;;;;;;;6.32;3.78;;;9.50;99.90;;;;;;4823043;29;20034;-83
2021/12/13 06:07:17;;;;;;;7.68;4.28;;;9.50;99.90;;;;;;4816514;29;20489;-84
2021/12/13 06:10:15;;;;;;;8.80;4.38;;;9.50;99.90;;;;;;4820918;29;20408;-83
2021/12/13 06:12:57;;;;;;;8.65;4.68;;;9.50;99.90;;;;;;4821892;29;20084;-84
2021/12/13 06:15:27;;;;;;;10.45;5.32;;;9.50;99.90;;;;;;4820849;29;20082;-84
2021/12/13 06:18:05;;;;;;;10.02;5.50;;;9.50;99.90;;;;;;4828245;29;20063;-84
2021/12/13 06:21:02;;;;;;;7.65;5.35;;;9.50;99.90;;;;;;4817974;29;20050;-84
2021/12/13 06:23:30;;;;;;;11.05;5.93;;;9.50;99.90;;;;;;4810261;29;20160;-83
2021/12/13 06:26:06;;;;;;;11.98;6.32;;;9.50;99.90;;;;;;4824758;29;20354;-83
2021/12/13 06:28:43;;;;;;;11.38;6.07;;;9.50;99.90;;;;;;4833887;29;20107;-83
2021/12/13 06:31:19;;;;;;;9.90;6.28;;;9.50;99.90;;;;;;4806684;29;20081;-83
2021/12/13 06:34:03;;;;;;;12.52;6.50;;;9.50;99.90;;;;;;4826910;29;20054;-83
2021/12/13 06:36:31;;;;;;;11.00;6.25;;;9.40;99.90;;;;;;4842786;29;20045;-83
2021/12/13 06:39:05;;;;;;;13.07;6.97;;;9.50;99.90;;;;;;4842962;29;20050;-83
2021/12/13 06:41:58;;;;;;;9.95;5.47;;;9.50;99.90;;;;;;4832167;29;20397;-83
2021/12/13 06:44:37;;;;;;;11.30;5.93;;;9.40;99.90;;;;;;4822745;29;20110;-83
2021/12/13 06:47:19;;;;;;;9.90;5.57;;;9.40;99.90;;;;;;4841411;29;20049;-83
2021/12/13 06:49:48;;;;;;;8.18;5.57;;;9.40;99.90;;;;;;4842760;29;20455;-82
2021/12/13 06:52:13;;;;;;;11.93;6.20;;;9.40;99.90;;;;;;4842816;29;20053;-83
2021/12/13 06:54:44;;;;;;;10.38;5.63;;;9.40;99.90;;;;;;4838500;29;20061;-83
2021/12/13 06:57:22;;;;;;;8.38;5.20;;;9.30;99.90;;;;;;4842660;29;20068;-83
2021/12/13 07:00:21;;;;;;;7.93;5.07;;;9.30;99.90;;;;;;4839446;29;20121;-83
2021/12/13 07:02:50;;;;;;;11.88;5.75;;;9.40;99.90;;;;;;4816382;29;20042;-76
2021/12/13 07:05:19;;;;;;;12.18;6.55;;;9.30;99.90;;;;;;4819930;29;20050;-76
2021/12/13 07:08:02;;;;;;;7.45;6.10;;;9.30;99.90;;;;;;4806880;29;20535;-77
2021/12/13 07:10:29;;;;;;;10.60;6.53;;;9.30;99.90;;;;;;4813556;29;20050;-76
2021/12/13 07:13:04;;;;;;;8.48;6.00;;;9.40;99.90;;;;;;4841689;29;20046;-77
2021/12/13 07:15:41;;;;;;;9.50;5.88;;;9.40;99.90;;;;;;4824945;29;20391;-76
2021/12/13 07:18:11;;;;;;;9.45;6.22;;;9.40;99.90;;;;;;4818667;29;20741;-76
2021/12/13 07:20:45;;;;;;;8.10;6.20;;;9.40;99.90;;;;;;4810378;29;20141;-76
2021/12/13 07:23:11;;;;;;;10.60;6.75;;;9.40;99.90;;;;;;4813790;29;20125;-76
2021/12/13 07:25:40;;;;;;;10.90;6.28;;;9.40;99.90;;;;;;4804796;29;20035;-76
2021/12/13 07:28:07;;;;;;;10.00;6.05;;;9.40;99.90;;;;;;4820970;29;20038;-79
2021/12/13 07:30:36;;;;;;;12.93;7.47;;;9.40;99.90;;;;;;4821877;29;20046;-78
2021/12/13 07:33:09;;;;;;;12.90;7.28;;;9.30;99.90;;;;;;4804603;29;20107;-79
2021/12/13 07:35:43;;;;;;;11.50;7.18;;;9.40;99.90;;;;;;4831706;29;20057;-79
2021/12/13 07:38:26;;;;;;;11.73;7.40;;;9.30;99.90;;;;;;4798408;29;20486;-84
2021/12/13 07:40:56;;;;;;;14.57;7.32;;;9.30;99.90;;;;;;4803111;29;20049;-75
2021/12/13 07:43:43;;;;;;;10.85;7.35;;;9.20;99.90;;;;;;4823709;29;20434;-82
2021/12/13 07:46:18;;;;;;;10.93;7.72;;;9.30;99.90;;;;;;4825700;29;20124;-79
2021/12/13 07:48:44;;;;;;;12.40;7.55;;;9.20;99.90;;;;;;4829297;29;20049;-79
2021/12/13 07:51:17;;;;;;;12.35;8.15;;;9.20;99.90;;;;;;4817918;29;20059;-79
2021/12/13 07:53:57;;;;;;;11.07;7.53;;;9.30;99.90;;;;;;4823454;29;20050;-79
2021/12/13 07:56:29;;;;;;;11.50;8.05;;;9.30;99.90;;;;;;4826617;29;20512;-79
2021/12/13 07:59:07;;;;;;;15.43;9.00;;;9.30;99.90;;;;;;4827666;29;20046;-80
2021/12/13 08:01:36;;;;;;;13.23;8.80;;;9.30;99.90;;;;;;4819084;29;20047;-80
2021/12/13 08:04:13;;;;;;;12.27;8.80;;;9.40;99.90;;;;;;4804894;29;20125;-80
2021/12/13 08:06:42;;;;;;;12.98;8.93;;;9.30;99.90;;;;;;4813255;29;20069;-80
2021/12/13 08:09:15;;;;;;;14.18;9.20;;;9.30;99.90;;;;;;4797292;29;20055;-80
2021/12/13 08:11:56;;;;;;;11.73;8.57;;;9.30;99.90;;;;;;4798045;29;20125;-80
2021/12/13 08:14:35;;;;;;;12.35;9.70;;;9.30;99.90;;;;;;4818243;29;20458;-80
2021/12/13 08:17:39;;;;;;;15.10;9.90;;;9.40;99.90;;;;;;4815127;29;20062;-80
2021/12/13 08:20:10;;;;;;;13.75;9.68;;;9.40;99.90;;;;;;4800305;29;20063;-80
2021/12/13 08:22:43;;;;;;;13.15;10.35;;;9.40;99.90;;;;;;4805826;29;20046;-80
2021/12/13 08:25:17;;;;;;;14.13;9.98;;;9.40;99.90;;;;;;4831698;29;20050;-79
2021/12/13 08:27:51;;;;;;;15.65;10.00;;;9.40;99.90;;;;;;4826137;29;20046;-79
2021/12/13 08:30:29;;;;;;;16.50;11.07;;;9.40;99.90;;;;;;4826516;29;20515;-79
2021/12/13 08:33:00;;;;;;;13.88;10.88;;;9.40;99.90;;;;;;4793979;29;20141;-78
2021/12/13 08:35:27;;;;;;;16.35;10.48;;;9.40;99.90;;;;;;4823231;29;20073;-79
2021/12/13 08:37:56;;;;;;;13.98;10.82;;;9.50;99.90;;;;;;4803005;29;20086;-79
2021/12/13 08:40:27;;;;;;;17.52;12.77;;;9.40;99.90;;;;;;4830276;29;20046;-78
2021/12/13 08:42:57;;;;;;;14.88;10.95;;;9.50;99.90;;;;;;4804891;29;20516;-78
2021/12/13 08:45:30;;;;;;;15.40;11.50;;;9.50;99.90;;;;;;4819830;29;20099;-78
2021/12/13 08:48:12;;;;;;;17.70;12.75;;;9.50;99.90;;;;;;4817926;29;20066;-77
2021/12/13 08:50:44;;;;;;;17.40;12.73;;;9.60;99.90;;;;;;4819957;29;20046;-77
2021/12/13 08:53:14;;;;;;;19.13;12.90;;;9.60;99.90;;;;;;4814933;29;20500;-77
2021/12/13 08:55:54;;;;;;;18.15;13.20;;;9.60;99.90;;;;;;4803959;29;20113;-78
2021/12/13 08:58:21;;;;;;;20.92;13.75;;;9.60;99.90;;;;;;4811315;29;20061;-79
2021/12/13 09:00:55;;;;;;;17.33;12.68;;;9.60;99.90;;;;;;4820260;29;20184;-77
2021/12/13 09:03:26;;;;;;;16.38;12.60;;;9.60;99.90;;;;;;4802293;29;20435;-77
2021/12/13 09:06:00;;;;;;;17.50;12.05;;;9.70;99.90;;;;;;4802424;29;20556;-77
2021/12/13 09:08:39;;;;;;;18.90;12.52;;;9.70;99.90;;;;;;4801985;29;20061;-78
2021/12/13 09:11:33;;;;;;;15.48;11.80;;;9.70;99.90;;;;;;4835865;29;20457;-79
2021/12/13 09:14:14;;;;;;;18.67;11.98;;;9.60;99.90;;;;;;4803324;29;20059;-79
2021/12/13 09:16:43;;;;;;;16.13;12.85;;;9.70;99.90;;;;;;4835436;29;20390;-79
2021/12/13 09:19:12;;;;;;;18.02;13.25;;;9.70;99.90;;;;;;4834270;29;20072;-77
2021/12/13 09:22:05;;;;;;;16.52;12.23;;;9.70;99.90;;;;;;4819388;29;20475;-79
2021/12/13 09:24:47;;;;;;;16.65;12.55;;;9.80;99.90;;;;;;4827216;29;20046;-79
2021/12/13 09:27:24;;;;;;;20.25;13.32;;;9.70;99.90;;;;;;4802406;29;20517;-80
2021/12/13 09:29:59;;;;;;;;;;;9.80;99.90;;;;;;4822689;29;20775;-80
2021/12/13 09:32:40;;;;;;;18.20;12.00;;;9.80;99.90;;;;;;4803402;29;19929;-80
2021/12/13 09:35:24;;;;;;;16.95;12.63;;;9.80;99.90;;;;;;4820160;29;20089;-80
2021/12/13 09:37:50;;;;;;;18.33;13.02;;;9.80;99.90;;;;;;4820713;29;20034;-78
2021/12/13 09:40:24;;;;;;;18.63;13.23;;;9.80;99.90;;;;;;4817999;29;20047;-77
2021/12/13 09:42:54;;;;;;;17.30;12.40;;;9.80;99.90;;;;;;4812885;29;20051;-77
2021/12/13 09:45:30;;;;;;;15.98;12.07;;;9.80;99.90;;;;;;4800903;29;20034;-77
2021/12/13 09:47:57;;;;;;;16.60;11.87;;;9.80;99.90;;;;;;4804412;29;20046;-78
2021/12/13 09:50:29;;;;;;;18.08;12.18;;;9.80;99.90;;;;;;4804587;29;20050;-78
2021/12/13 09:53:04;;;;;;;18.13;12.50;;;9.80;99.90;;;;;;4819990;29;20382;-77
2021/12/13 09:55:35;;;;;;;16.35;12.77;;;9.90;99.90;;;;;;4803649;29;20045;-79
2021/12/13 09:58:10;;;;;;;14.80;12.07;;;9.80;99.90;;;;;;4800742;29;20089;-79
2021/12/13 10:00:48;;;;;;;15.38;12.15;;;9.90;99.90;;;;;;4815188;29;20598;-80
2021/12/13 10:03:21;;;;;;;14.50;11.93;;;9.90;99.90;;;;;;4810982;29;20705;-79
2021/12/13 10:05:53;;;;;;;15.00;11.50;;;9.90;99.90;;;;;;4822351;29;20081;-79
2021/12/13 10:08:24;;;;;;;13.90;11.07;;;9.90;99.90;;;;;;4818739;29;20125;-80
2021/12/13 10:10:56;;;;;;;15.90;11.70;;;9.90;99.90;;;;;;4811388;29;20121;-79
2021/12/13 10:13:27;;;;;;;14.98;12.18;;;9.90;99.90;;;;;;4828837;29;20046;-79
2021/12/13 10:16:02;;;;;;;14.30;11.55;;;9.90;99.90;;;;;;4808704;29;20042;-79
2021/12/13 10:18:31;;;;;;;15.48;11.43;;;9.90;99.90;;;;;;4817367;29;20133;-79
2021/12/13 10:21:06;;;;;;;15.63;11.50;;;9.90;99.90;;;;;;4818371;29;20073;-79
2021/12/13 10:23:37;;;;;;;14.23;10.80;;;9.80;99.90;;;;;;4817871;29;20493;-79
2021/12/13 10:26:07;;;;;;;13.73;11.00;;;9.90;99.90;;;;;;4803044;29;20134;-79
2021/12/13 10:28:37;;;;;;;15.13;11.48;;;9.90;99.90;;;;;;4830974;29;20051;-80
2021/12/13 10:31:14;;;;;;;14.18;10.95;;;9.80;99.90;;;;;;4821768;29;20047;-80
2021/12/13 10:33:40;;;;;;;13.50;9.90;;;9.90;99.90;;;;;;4822360;29;20388;-80
2021/12/13 10:36:08;;;;;;;14.15;10.85;;;9.90;99.90;;;;;;4819516;29;20517;-80
2021/12/13 10:38:44;;;;;;;13.57;10.98;;;10.00;99.90;;;;;;4815461;29;20493;-79
2021/12/13 10:41:16;;;;;;;15.95;11.50;;;10.00;99.90;;;;;;4819760;29;20034;-78
2021/12/13 10:43:49;;;;;;;17.50;11.57;;;10.00;99.90;;;;;;4832192;29;20515;-79
2021/12/13 10:46:27;;;;;;;15.98;11.25;;;10.00;99.90;;;;;;4810608;29;20046;-79
2021/12/13 10:48:58;;;;;;;13.30;10.57;;;10.00;99.90;;;;;;4822613;29;20054;-79
2021/12/13 10:51:46;;;;;;;14.55;11.13;;;10.10;99.90;;;;;;4803628;29;20054;-78
2021/12/13 10:54:19;;;;;;;15.98;11.30;;;10.10;99.90;;;;;;4830799;29;20082;-78
2021/12/13 10:56:54;;;;;;;13.88;10.95;;;10.10;99.90;;;;;;4803263;29;20146;-78
2021/12/13 10:59:24;;;;;;;14.68;10.77;;;10.10;99.90;;;;;;4822328;29;20038;-78
2021/12/13 11:01:54;;;;;;;15.63;10.80;;;10.10;99.90;;;;;;4830940;29;20046;-78
2021/12/13 11:04:33;;;;;;;15.38;11.35;;;10.10;99.90;;;;;;4808504;29;20112;-78
2021/12/13 11:07:00;;;;;;;15.65;11.13;;;10.10;99.90;;;;;;4819652;29;20074;-78
2021/12/13 11:09:26;;;;;;;14.98;11.13;;;10.00;99.90;;;;;;4818755;29;20090;-78
2021/12/13 11:11:57;;;;;;;15.80;12.00;;;10.00;99.90;;;;;;4819507;29;20047;-78
2021/12/13 11:14:25;;;;;;;18.25;11.63;;;10.00;99.90;;;;;;4815973;29;20086;-79
2021/12/13 11:16:55;;;;;;;14.98;11.82;;;10.00;99.90;;;;;;4822385;29;20047;-79
2021/12/13 11:19:25;;;;;;;15.30;11.48;;;10.00;99.90;;;;;;4822505;29;20149;-78
2021/12/13 11:22:00;;;;;;;16.17;11.43;;;10.10;99.90;;;;;;4832138;29;20370;-80
2021/12/13 11:24:27;;;;;;;15.88;11.20;;;10.00;99.90;;;;;;4820084;29;20101;-79
2021/12/13 11:26:58;;;;;;;15.57;11.88;;;10.10;99.90;;;;;;4818912;29;20072;-76
2021/12/13 11:29:24;;;;;;;14.85;10.98;;;10.10;99.90;;;;;;4835708;29;20062;-77
2021/12/13 11:32:26;;;;;;;15.48;11.18;;;10.10;99.90;;;;;;4803314;29;20433;-76
2021/12/13 11:35:04;;;;;;;14.32;11.10;;;10.10;99.90;;;;;;4835042;29;20042;-77
2021/12/13 11:37:41;;;;;;;17.00;11.55;;;10.10;99.90;;;;;;4820053;29;20089;-77
2021/12/13 11:40:29;;;;;;;16.13;11.15;;;10.10;99.90;;;;;;4835762;29;20050;-77
2021/12/13 11:42:54;;;;;;;;;;;10.10;99.90;;;;;;4820000;29;20050;-77
2021/12/13 11:45:36;;;;;;;17.52;10.93;;;10.20;99.90;;;;;;4818864;29;19921;-77
2021/12/13 11:48:26;;;;;;;19.58;11.88;;;10.20;99.90;;;;;;4817254;29;20243;-76
2021/12/13 11:51:29;;;;;;;15.65;11.25;;;10.20;99.90;;;;;;4836625;29;20479;-76
2021/12/13 11:54:28;;;;;;;13.88;10.20;;;10.30;99.90;;;;;;4797904;29;20062;-77
2021/12/13 11:57:28;;;;;;;14.93;11.15;;;10.20;99.90;;;;;;4826564;29;20050;-77
2021/12/13 12:00:06;;;;;;;15.23;10.88;;;10.20;99.90;;;;;;4830704;29;20519;-77
2021/12/13 12:02:58;;;;;;;18.80;11.70;;;10.30;99.90;;;;;;4836610;29;20108;-78
2021/12/13 12:06:11;;;;;;;17.48;11.20;;;10.30;99.90;;;;;;4803110;29;20527;-76
2021/12/13 12:09:03;;;;;;;18.10;10.98;;;10.40;99.90;;;;;;4836321;29;20046;-77
2021/12/13 12:11:50;;;;;;;15.95;10.52;;;10.40;99.90;;;;;;4817558;29;20038;-77
2021/12/13 12:14:23;;;;;;;15.27;11.05;;;10.40;99.90;;;;;;4814800;29;20046;-77
2021/12/13 12:16:50;;;;;;;17.20;10.77;;;10.40;99.90;;;;;;4817750;29;20047;-77
2021/12/13 12:19:32;;;;;;;14.13;10.73;;;10.40;99.90;;;;;;4813970;29;20133;-77
2021/12/13 12:22:03;;;;;;;15.05;10.70;;;10.40;99.90;;;;;;4818039;29;20043;-76
2021/12/13 12:24:47;;;;;;;17.67;10.40;;;10.30;99.90;;;;;;4815906;29;20046;-77
2021/12/13 12:27:18;;;;;;;16.77;11.20;;;10.30;99.90;;;;;;4817901;29;20061;-77
2021/12/13 12:29:59;;;;;;;18.67;10.98;;;10.20;99.90;;;;;;4817926;29;20106;-77
2021/12/13 12:32:47;;;;;;;17.02;11.02;;;10.20;99.90;;;;;;4819406;29;20706;-77
2021/12/13 12:35:19;;;;;;;15.73;10.60;;;10.10;99.90;;;;;;4824842;29;20133;-77
2021/12/13 12:37:57;;;;;;;15.98;11.35;;;10.10;99.90;;;;;;4818875;29;20119;-77
2021/12/13 12:40:35;;;;;;;14.95;10.02;;;10.00;99.90;;;;;;4817653;29;20053;-77
2021/12/13 12:43:07;;;;;;;12.73;9.65;;;10.00;99.90;;;;;;4818240;29;20528;-77
2021/12/13 12:45:39;;;;;;;13.35;9.88;;;9.90;99.90;;;;;;4817595;29;20684;-77
2021/12/13 12:48:06;;;;;;;16.73;11.00;;;9.90;99.90;;;;;;4818421;29;20046;-77
2021/12/13 12:50:34;;;;;;;14.88;9.90;;;9.90;99.90;;;;;;4835573;29;20501;-77
2021/12/13 12:53:11;;;;;;;15.63;10.15;;;9.90;99.90;;;;;;4835831;29;20046;-77
2021/12/13 12:55:45;;;;;;;17.42;10.35;;;9.90;99.90;;;;;;4835637;29;20124;-78
2021/12/13 12:58:29;;;;;;;16.60;10.70;;;10.00;99.90;;;;;;4817797;29;20375;-77
2021/12/13 13:00:59;;;;;;;14.35;10.25;;;10.00;99.90;;;;;;4813866;29;20078;-77
2021/12/13 13:03:29;;;;;;;14.82;10.27;;;10.00;99.90;;;;;;4817437;29;20058;-77
2021/12/13 13:06:11;;;;;;;16.40;10.98;;;10.00;99.90;;;;;;4814897;29;20507;-78
2021/12/13 13:08:40;;;;;;;16.35;11.05;;;9.90;99.90;;;;;;4835403;29;20054;-77
2021/12/13 13:11:27;;;;;;;17.48;11.88;;;9.90;99.90;;;;;;4817371;29;20107;-78
2021/12/13 13:14:18;;;;;;;16.02;11.40;;;9.90;99.90;;;;;;4817167;29;20828;-77
2021/12/13 13:16:53;;;;;;;15.88;11.52;;;9.90;99.90;;;;;;4819450;29;20154;-78
2021/12/13 13:19:30;;;;;;;16.92;10.40;;;10.00;99.90;;;;;;4817094;29;20111;-78
2021/12/13 13:22:00;;;;;;;18.48;10.80;;;10.10;99.90;;;;;;4804876;29;20401;-78
2021/12/13 13:24:26;;;;;;;19.15;11.73;;;10.10;99.90;;;;;;4829472;29;20046;-78
2021/12/13 13:26:52;;;;;;;16.10;11.13;;;10.20;99.90;;;;;;4805025;29;20050;-77
2021/12/13 13:29:20;;;;;;;18.90;11.07;;;10.20;99.90;;;;;;4818175;29;20053;-78